Attica, Michigan
Current Conditions -  °F | °C
As of 11:14 AM on Saturday 25 Oct 2014 (Local Time) from KD95 Reporting Station
Haze Haze  
Wind Chill: 55°   Ceiling: 1000
Heat Index: 55°   Visibility: 4mi
Dew Point: 51°   Wind: 13mph
Humidity: 87%   Direction: 290°WNW
Pressure: 29.79"   Gusts: 20mph
Location:  43.03°N, 83.17°W
Report Text: KD95 251514Z AUTO 29011G17KT 270V330 4SM BR OVC010 13/10 A2979 RMK AO2 T01250104
Loading
Personal Weather Stations






























Interactive Weather Map
Tropical Storm Tracking
New forecast layout! Learn more

10-Day Weather Forecast

Advertisements
Track Severe Weather on mobile